createdAt,value
2023-05-11T00:02:20.751Z,31.20
2023-05-11T00:04:47.861Z,31.20
2023-05-11T00:07:15.034Z,31.40
2023-05-11T00:09:42.218Z,31.40
2023-05-11T00:12:09.164Z,31.40
2023-05-11T00:14:36.240Z,31.60
2023-05-11T00:17:03.384Z,31.30
2023-05-11T00:19:31.892Z,31.30
2023-05-11T00:21:59.860Z,32.20
2023-05-11T00:24:26.923Z,31.40
2023-05-11T00:26:53.908Z,31.60
2023-05-11T00:29:21.142Z,31.40
2023-05-11T00:31:48.451Z,30.60
2023-05-11T00:34:16.604Z,30.90
2023-05-11T00:36:44.448Z,32.00
2023-05-11T00:39:12.625Z,31.40
2023-05-11T00:41:39.904Z,31.20
2023-05-11T00:44:07.123Z,31.20
2023-05-11T00:46:34.349Z,31.40
2023-05-11T00:49:01.558Z,32.20
2023-05-11T00:51:29.034Z,31.80
2023-05-11T00:53:56.440Z,31.50
2023-05-11T00:56:23.622Z,31.80
2023-05-11T00:58:50.814Z,33.00
2023-05-11T01:01:19.109Z,31.90
2023-05-11T01:03:47.634Z,31.20
2023-05-11T01:06:28.248Z,31.00
2023-05-11T01:09:16.017Z,31.50
2023-05-11T01:11:51.813Z,31.00
2023-05-11T01:14:46.615Z,31.00
2023-05-11T01:17:30.738Z,31.20
2023-05-11T01:20:06.055Z,30.40
2023-05-11T01:22:51.717Z,31.10
2023-05-11T01:25:24.878Z,31.30
2023-05-11T01:28:25.147Z,31.40
2023-05-11T01:30:53.788Z,31.80
2023-05-11T01:33:27.987Z,31.80
2023-05-11T01:36:04.646Z,31.50
2023-05-11T01:38:36.993Z,31.70
2023-05-11T01:41:12.252Z,31.70
2023-05-11T01:43:41.377Z,30.90
2023-05-11T01:46:10.483Z,30.10
2023-05-11T01:48:41.097Z,30.40
2023-05-11T01:51:09.589Z,30.70
2023-05-11T01:53:39.810Z,31.40
2023-05-11T01:56:07.740Z,30.40
2023-05-11T01:58:37.276Z,30.10
2023-05-11T02:01:05.129Z,30.90
2023-05-11T02:03:35.170Z,30.80
2023-05-11T02:06:04.986Z,30.30
2023-05-11T02:08:35.078Z,30.10
2023-05-11T02:11:04.311Z,30.10
2023-05-11T02:13:33.522Z,30.50
2023-05-11T02:16:02.763Z,30.00
2023-05-11T02:18:31.559Z,30.60
2023-05-11T02:21:00.463Z,29.50
2023-05-11T02:23:30.855Z,29.90
2023-05-11T02:25:58.420Z,29.80
2023-05-11T02:28:25.481Z,30.30
2023-05-11T02:30:56.002Z,30.50
2023-05-11T02:33:33.204Z,30.40
2023-05-11T02:36:02.395Z,30.40
2023-05-11T02:38:38.236Z,30.00
2023-05-11T02:41:11.837Z,30.00
2023-05-11T02:43:45.000Z,29.90
2023-05-11T02:46:20.157Z,30.00
2023-05-11T02:48:51.639Z,30.70
2023-05-11T02:51:24.577Z,30.60
2023-05-11T02:53:55.073Z,30.00
2023-05-11T02:56:23.795Z,29.90
2023-05-11T02:58:51.098Z,29.70
2023-05-11T03:01:18.579Z,30.50
2023-05-11T03:03:46.310Z,29.70
2023-05-11T03:06:13.858Z,30.20
2023-05-11T03:08:42.172Z,30.00
2023-05-11T03:11:12.731Z,30.20
2023-05-11T03:13:39.968Z,30.20
2023-05-11T03:16:07.849Z,30.30
2023-05-11T03:18:36.911Z,30.70
2023-05-11T03:21:05.775Z,29.70
2023-05-11T03:23:35.068Z,29.50
2023-05-11T03:26:02.761Z,29.80
2023-05-11T03:28:31.399Z,30.00
2023-05-11T03:30:58.703Z,31.00
2023-05-11T03:33:25.924Z,31.00
2023-05-11T03:35:54.245Z,31.70
2023-05-11T03:38:24.708Z,31.30
2023-05-11T03:40:53.819Z,31.00
2023-05-11T03:43:22.217Z,32.20
2023-05-11T03:45:53.410Z,31.70
2023-05-11T03:48:21.289Z,32.00
2023-05-11T03:50:49.775Z,31.20
2023-05-11T03:53:17.724Z,30.90
2023-05-11T03:55:44.881Z,31.30
2023-05-11T03:58:12.353Z,31.00
2023-05-11T04:00:42.919Z,32.20
2023-05-11T04:03:12.630Z,31.50
2023-05-11T04:05:40.762Z,31.80
2023-05-11T04:08:07.825Z,31.60
2023-05-11T04:10:35.177Z,30.70
2023-05-11T04:13:02.491Z,30.80
2023-05-11T04:15:30.072Z,30.00
2023-05-11T04:17:57.151Z,30.40
2023-05-11T04:20:24.361Z,30.90
2023-05-11T04:22:51.551Z,31.40
2023-05-11T04:25:21.060Z,31.20
2023-05-11T04:27:48.153Z,31.20
2023-05-11T04:30:15.784Z,31.40
2023-05-11T04:32:42.915Z,31.80
2023-05-11T04:35:10.190Z,32.50
2023-05-11T04:37:37.757Z,32.70
2023-05-11T04:40:05.304Z,33.10
2023-05-11T04:42:32.520Z,32.70
2023-05-11T04:44:59.590Z,32.40
2023-05-11T04:47:26.599Z,32.80
2023-05-11T04:49:54.058Z,32.50
2023-05-11T04:52:21.700Z,32.20
2023-05-11T04:54:48.821Z,32.20
2023-05-11T04:57:15.879Z,32.20
2023-05-11T04:59:42.943Z,32.90
2023-05-11T05:02:10.039Z,33.40
2023-05-11T05:04:37.119Z,33.10
2023-05-11T05:07:04.686Z,33.80
2023-05-11T05:09:31.735Z,32.90
2023-05-11T05:11:58.939Z,32.30
2023-05-11T05:14:26.010Z,32.50
2023-05-11T05:16:54.610Z,31.80
2023-05-11T05:19:21.685Z,31.30
2023-05-11T05:21:48.868Z,30.40
2023-05-11T05:24:16.017Z,31.70
2023-05-11T05:26:43.565Z,33.00
2023-05-11T05:29:10.748Z,32.90
2023-05-11T05:31:37.712Z,33.10
2023-05-11T05:34:04.762Z,33.30
2023-05-11T05:36:32.553Z,33.30
2023-05-11T05:39:00.261Z,33.90
2023-05-11T05:41:27.341Z,33.60
2023-05-11T05:43:54.415Z,33.40
2023-05-11T05:46:21.518Z,32.90
2023-05-11T05:48:48.533Z,33.40
2023-05-11T05:51:16.687Z,33.70
2023-05-11T05:53:43.939Z,34.00
2023-05-11T05:56:10.977Z,35.20
2023-05-11T05:58:38.061Z,34.70
2023-05-11T06:01:05.143Z,32.40
2023-05-11T06:03:32.488Z,33.10
2023-05-11T06:05:59.601Z,34.20
2023-05-11T06:08:26.957Z,33.10
2023-05-11T06:10:54.194Z,33.30
2023-05-11T06:13:21.551Z,33.80
2023-05-11T06:15:48.573Z,34.30
2023-05-11T06:18:18.395Z,33.20
2023-05-11T06:20:48.353Z,33.70
2023-05-11T06:23:15.461Z,34.50
2023-05-11T06:25:42.509Z,34.70
2023-05-11T06:28:09.576Z,34.40
2023-05-11T06:30:36.626Z,35.20
2023-05-11T06:33:03.691Z,35.20
2023-05-11T06:35:30.791Z,34.90
2023-05-11T06:37:58.047Z,35.80
2023-05-11T06:40:25.469Z,35.80
2023-05-11T06:42:52.703Z,36.00
2023-05-11T06:45:19.796Z,35.30
2023-05-11T06:47:46.887Z,36.00
2023-05-11T06:50:14.532Z,34.30
2023-05-11T06:52:42.740Z,35.40
2023-05-11T06:55:14.911Z,35.80
2023-05-11T06:57:42.166Z,35.80
2023-05-11T07:00:09.916Z,36.30
2023-05-11T07:02:37.060Z,35.90
2023-05-11T07:05:04.541Z,36.60
2023-05-11T07:07:33.627Z,37.50
2023-05-11T07:10:01.105Z,38.10
2023-05-11T07:12:28.156Z,37.70
2023-05-11T07:14:55.224Z,37.60
2023-05-11T07:17:22.232Z,38.00
2023-05-11T07:19:52.326Z,38.00
2023-05-11T07:22:19.676Z,37.70
2023-05-11T07:24:46.878Z,38.10
2023-05-11T07:27:15.301Z,38.00
2023-05-11T07:29:42.448Z,38.20
2023-05-11T07:32:09.473Z,38.80
2023-05-11T07:34:36.715Z,38.30
2023-05-11T07:37:04.129Z,38.80
2023-05-11T07:39:31.143Z,39.00
2023-05-11T07:41:58.203Z,39.10
2023-05-11T07:44:25.606Z,39.60
2023-05-11T07:46:52.957Z,39.10
2023-05-11T07:49:25.411Z,40.50
2023-05-11T07:52:02.496Z,40.50
2023-05-11T07:54:29.694Z,41.20
2023-05-11T07:56:57.099Z,39.80
2023-05-11T07:59:24.294Z,39.80
2023-05-11T08:01:51.278Z,39.50
2023-05-11T08:04:18.766Z,39.90
2023-05-11T08:06:45.822Z,40.90
2023-05-11T08:09:13.078Z,40.60
2023-05-11T08:11:40.147Z,41.30
2023-05-11T08:14:07.696Z,41.20
2023-05-11T08:16:37.116Z,40.70
2023-05-11T08:19:04.322Z,41.00
2023-05-11T08:21:33.425Z,40.00
2023-05-11T08:24:00.408Z,39.80
2023-05-11T08:26:27.496Z,38.80
2023-05-11T08:28:54.533Z,39.30
2023-05-11T08:31:21.623Z,40.50
2023-05-11T08:33:48.832Z,39.00
2023-05-11T08:36:16.549Z,39.30
2023-05-11T08:38:44.174Z,39.60
2023-05-11T08:41:14.001Z,40.00
2023-05-11T08:43:41.283Z,39.70
2023-05-11T08:46:11.355Z,38.30
2023-05-11T08:48:38.663Z,39.40
2023-05-11T08:51:06.444Z,38.20
2023-05-11T08:53:33.590Z,38.90
2023-05-11T08:56:02.931Z,38.90
2023-05-11T08:58:32.407Z,39.20
2023-05-11T09:00:59.751Z,38.80
2023-05-11T09:03:30.696Z,39.20
2023-05-11T09:05:58.936Z,38.80
2023-05-11T09:08:30.605Z,38.90
2023-05-11T09:10:58.539Z,39.50
2023-05-11T09:22:07.443Z,39.80
2023-05-11T09:24:34.648Z,39.40
2023-05-11T09:27:12.007Z,39.20
2023-05-11T09:29:39.016Z,39.10
2023-05-11T09:32:06.486Z,39.30
2023-05-11T09:34:33.532Z,39.60
2023-05-11T09:37:00.509Z,39.60
2023-05-11T09:39:44.660Z,39.00
2023-05-11T09:42:24.607Z,38.40
2023-05-11T09:44:53.140Z,39.70
2023-05-11T09:47:22.640Z,39.50
2023-05-11T09:49:49.826Z,39.60
2023-05-11T09:52:18.758Z,40.10
2023-05-11T09:54:47.888Z,40.50
2023-05-11T09:57:29.568Z,39.60
2023-05-11T09:59:58.269Z,39.50
2023-05-11T10:02:33.350Z,39.70
2023-05-11T10:05:03.934Z,39.70
2023-05-11T10:07:31.750Z,39.20
2023-05-11T10:10:01.965Z,39.00
2023-05-11T10:12:30.536Z,38.10
2023-05-11T10:15:07.960Z,38.40
2023-05-11T10:17:38.018Z,38.40
2023-05-11T10:20:07.003Z,39.10
2023-05-11T10:22:35.480Z,39.30
2023-05-11T10:25:07.534Z,39.40
2023-05-11T10:27:35.000Z,40.30
2023-05-11T10:30:03.996Z,39.50
2023-05-11T10:32:37.470Z,39.60
2023-05-11T10:35:08.400Z,40.10
2023-05-11T10:37:35.577Z,40.10
2023-05-11T10:40:03.263Z,40.00
2023-05-11T10:43:07.088Z,40.50
2023-05-11T10:45:47.829Z,41.60
2023-05-11T10:48:32.768Z,41.10
2023-05-11T10:51:20.384Z,40.30
2023-05-11T10:54:37.533Z,39.40
2023-05-11T10:57:33.880Z,40.00
2023-05-11T11:00:43.766Z,40.60
2023-05-11T11:03:12.580Z,40.70
2023-05-11T11:05:40.463Z,40.70
2023-05-11T11:08:09.534Z,40.80
2023-05-11T11:10:49.544Z,40.60
2023-05-11T11:13:18.377Z,40.80
2023-05-11T11:15:54.622Z,41.30
2023-05-11T11:18:29.623Z,42.00
2023-05-11T11:20:58.780Z,41.40
2023-05-11T11:23:43.916Z,41.20
2023-05-11T11:26:16.907Z,41.60
2023-05-11T11:29:02.114Z,41.00
2023-05-11T11:31:33.362Z,41.20
2023-05-11T11:34:29.576Z,41.30
2023-05-11T11:36:58.641Z,41.60
2023-05-11T11:39:27.054Z,41.50
2023-05-11T11:42:34.831Z,41.40
2023-05-11T11:45:28.732Z,41.00
2023-05-11T11:48:16.130Z,41.50
2023-05-11T11:50:45.054Z,41.80
2023-05-11T11:53:14.350Z,41.60
2023-05-11T11:55:52.118Z,42.30
2023-05-11T11:58:46.975Z,40.80
2023-05-11T12:01:19.179Z,41.30
2023-05-11T12:04:07.539Z,40.90
2023-05-11T12:06:39.787Z,41.80
2023-05-11T12:09:07.863Z,42.10
2023-05-11T12:11:35.650Z,42.70
2023-05-11T12:14:03.213Z,41.30
2023-05-11T12:16:30.681Z,41.30
2023-05-11T12:19:01.908Z,42.00
2023-05-11T12:21:34.447Z,42.60
2023-05-11T12:24:04.607Z,41.60
2023-05-11T12:26:32.666Z,41.90
2023-05-11T12:29:08.785Z,42.00
2023-05-11T12:31:37.362Z,41.60
2023-05-11T12:34:04.504Z,41.40
2023-05-11T12:36:33.342Z,40.00
2023-05-11T12:39:04.923Z,41.10
2023-05-11T12:41:32.688Z,41.00
2023-05-11T12:44:01.181Z,41.50
2023-05-11T12:46:28.442Z,42.30
2023-05-11T12:48:56.835Z,41.40
2023-05-11T12:51:47.948Z,41.60
2023-05-11T12:54:38.412Z,42.30
2023-05-11T12:57:07.630Z,43.50
2023-05-11T12:59:40.171Z,43.00
2023-05-11T13:02:16.189Z,42.10
2023-05-11T13:04:44.751Z,41.40
2023-05-11T13:07:15.227Z,42.20
2023-05-11T13:09:43.011Z,41.90
2023-05-11T13:12:20.888Z,42.60
2023-05-11T13:14:50.848Z,42.40
2023-05-11T13:17:34.871Z,42.50
2023-05-11T13:20:21.649Z,41.80
2023-05-11T13:22:49.728Z,41.70
2023-05-11T13:25:20.951Z,40.00
2023-05-11T13:27:48.201Z,39.40
2023-05-11T13:30:15.462Z,39.80
2023-05-11T13:32:42.504Z,40.80
2023-05-11T13:35:09.893Z,41.10
2023-05-11T13:37:37.505Z,42.10
2023-05-11T13:40:06.892Z,42.60
2023-05-11T13:42:34.081Z,41.80
2023-05-11T13:45:01.073Z,41.90
2023-05-11T13:47:28.296Z,41.70
2023-05-11T13:49:55.421Z,40.40
2023-05-11T13:52:22.617Z,41.30
2023-05-11T13:54:51.535Z,41.10
2023-05-11T13:57:19.085Z,41.80
2023-05-11T13:59:46.623Z,42.00
2023-05-11T14:02:14.283Z,41.80
2023-05-11T14:04:41.806Z,41.80
2023-05-11T14:07:11.917Z,41.90
2023-05-11T14:09:39.170Z,41.10
2023-05-11T14:12:07.093Z,41.80
2023-05-11T14:14:34.260Z,41.30
2023-05-11T14:17:01.578Z,40.70
2023-05-11T14:19:29.277Z,40.70
2023-05-11T14:21:56.985Z,40.40
2023-05-11T14:24:24.110Z,40.80
2023-05-11T14:26:51.273Z,41.70
2023-05-11T14:29:18.505Z,42.10
2023-05-11T14:31:47.681Z,40.90
2023-05-11T14:34:14.806Z,42.10
2023-05-11T14:36:41.984Z,41.10
2023-05-11T14:39:09.039Z,40.50
2023-05-11T14:41:36.440Z,40.70
2023-05-11T14:44:04.822Z,40.40
2023-05-11T14:46:32.133Z,39.00
2023-05-11T14:48:59.256Z,39.30
2023-05-11T14:51:26.339Z,38.80
2023-05-11T14:53:53.608Z,38.60
2023-05-11T14:56:22.348Z,38.70
2023-05-11T14:58:49.609Z,36.90
2023-05-11T15:01:16.897Z,37.00
2023-05-11T15:03:44.122Z,37.40
2023-05-11T15:06:11.375Z,37.30
2023-05-11T15:08:38.740Z,37.30
2023-05-11T15:11:06.168Z,37.10
2023-05-11T15:13:33.277Z,38.60
2023-05-11T15:16:00.629Z,38.60
2023-05-11T15:18:27.751Z,38.30
2023-05-11T15:20:54.975Z,37.80
2023-05-11T15:23:22.105Z,37.00
2023-05-11T15:25:49.523Z,36.80
2023-05-11T15:28:16.642Z,36.60
2023-05-11T15:30:44.034Z,37.00
2023-05-11T15:33:11.379Z,37.70
2023-05-11T15:35:38.687Z,38.70
2023-05-11T15:38:06.343Z,37.60
2023-05-11T15:40:33.824Z,38.20
2023-05-11T15:43:02.105Z,37.80
2023-05-11T15:45:29.681Z,37.20
2023-05-11T15:47:57.564Z,37.40
2023-05-11T15:50:24.831Z,36.70
2023-05-11T15:52:51.904Z,38.00
2023-05-11T15:55:19.070Z,38.00
2023-05-11T15:57:46.161Z,38.20
2023-05-11T16:00:14.114Z,38.30
2023-05-11T16:02:42.954Z,37.90
2023-05-11T16:05:10.273Z,37.60
2023-05-11T16:07:37.410Z,37.10
2023-05-11T16:10:05.156Z,37.70
2023-05-11T16:12:32.177Z,36.80
2023-05-11T16:14:59.248Z,37.00
2023-05-11T16:17:26.410Z,37.20
2023-05-11T16:19:53.602Z,37.20
2023-05-11T16:22:23.902Z,37.60
2023-05-11T16:24:51.194Z,36.60
2023-05-11T16:27:18.314Z,37.10
2023-05-11T16:29:45.837Z,37.30
2023-05-11T16:32:15.153Z,36.90
2023-05-11T16:34:44.786Z,37.00
2023-05-11T16:37:11.851Z,37.40
2023-05-11T16:39:38.922Z,37.20
2023-05-11T16:42:07.647Z,37.60
2023-05-11T16:44:34.652Z,37.70
2023-05-11T16:47:01.897Z,37.90
2023-05-11T16:49:28.951Z,38.30
2023-05-11T16:51:55.984Z,37.90
2023-05-11T16:54:23.368Z,38.90
2023-05-11T16:56:52.101Z,37.80
2023-05-11T16:59:19.474Z,37.50
2023-05-11T17:01:48.879Z,38.50
2023-05-11T17:04:16.790Z,38.60
2023-05-11T17:06:43.995Z,38.00
2023-05-11T17:09:10.987Z,38.50
2023-05-11T17:11:37.932Z,36.90
2023-05-11T17:14:04.913Z,36.90
2023-05-11T17:16:32.355Z,36.90
2023-05-11T17:18:59.728Z,38.00
2023-05-11T17:21:26.907Z,37.60
2023-05-11T17:23:53.969Z,36.60
2023-05-11T17:26:25.089Z,36.70
2023-05-11T17:28:54.490Z,36.50
2023-05-11T17:31:21.569Z,36.40
2023-05-11T17:33:48.792Z,37.50
2023-05-11T17:36:15.914Z,37.60
2023-05-11T17:38:43.164Z,37.70
2023-05-11T17:41:10.413Z,36.70
2023-05-11T17:43:38.132Z,37.10
2023-05-11T17:46:05.502Z,36.70
2023-05-11T17:48:32.647Z,36.30
2023-05-11T17:51:00.278Z,36.40
2023-05-11T17:53:27.495Z,36.10
2023-05-11T17:55:54.788Z,36.00
2023-05-11T17:58:21.981Z,35.20
2023-05-11T18:00:49.578Z,35.10
2023-05-11T18:03:17.148Z,36.00
2023-05-11T18:05:48.421Z,36.30
2023-05-11T18:08:15.945Z,35.10
2023-05-11T18:10:43.180Z,35.70
2023-05-11T18:13:10.346Z,35.10
2023-05-11T18:15:38.426Z,35.40
2023-05-11T18:18:06.804Z,35.50
2023-05-11T18:20:34.515Z,36.30
2023-05-11T18:23:01.681Z,36.70
2023-05-11T18:25:32.499Z,36.70
2023-05-11T18:27:59.513Z,36.10
2023-05-11T18:30:28.709Z,35.70
2023-05-11T18:32:56.298Z,35.60
2023-05-11T18:35:26.213Z,35.20
2023-05-11T18:37:53.719Z,35.80
2023-05-11T18:40:22.747Z,35.70
2023-05-11T18:42:49.932Z,35.70
2023-05-11T18:45:17.515Z,35.70
2023-05-11T18:47:46.345Z,35.10
2023-05-11T18:50:17.344Z,34.60
2023-05-11T18:52:44.649Z,34.90
2023-05-11T18:55:11.870Z,34.70
2023-05-11T18:57:40.220Z,34.20
2023-05-11T19:00:07.946Z,34.30
2023-05-11T19:02:35.129Z,33.90
2023-05-11T19:05:02.983Z,34.30
2023-05-11T19:07:30.549Z,35.20
2023-05-11T19:09:58.343Z,34.70
2023-05-11T19:12:25.450Z,34.40
2023-05-11T19:14:56.257Z,34.70
2023-05-11T19:17:23.853Z,35.70
2023-05-11T19:19:52.477Z,35.50
2023-05-11T19:22:21.442Z,35.70
2023-05-11T19:24:48.431Z,35.90
2023-05-11T19:27:15.803Z,35.30
2023-05-11T19:29:43.061Z,35.20
2023-05-11T19:32:12.759Z,35.60
2023-05-11T19:34:39.945Z,35.50
2023-05-11T19:37:07.203Z,35.80
2023-05-11T19:39:34.312Z,35.70
2023-05-11T19:42:01.501Z,35.30
2023-05-11T19:44:34.908Z,35.40
2023-05-11T19:47:02.002Z,34.90
2023-05-11T19:49:29.434Z,35.00
2023-05-11T19:51:56.449Z,35.20
2023-05-11T19:54:25.969Z,34.80
2023-05-11T19:56:53.077Z,34.70
2023-05-11T19:59:20.364Z,34.80
2023-05-11T20:01:47.538Z,34.30
2023-05-11T20:04:15.065Z,34.30
2023-05-11T20:06:42.458Z,34.30
2023-05-11T20:09:09.578Z,34.10
2023-05-11T20:11:36.562Z,34.60
2023-05-11T20:14:04.784Z,35.00
2023-05-11T20:16:32.186Z,34.20
2023-05-11T20:18:59.705Z,34.80
2023-05-11T20:21:28.452Z,34.70
2023-05-11T20:23:56.021Z,34.40
2023-05-11T20:26:23.467Z,34.50
2023-05-11T20:28:50.437Z,34.00
2023-05-11T20:31:22.538Z,34.50
2023-05-11T20:36:19.668Z,34.00
2023-05-11T20:38:49.438Z,34.20
2023-05-11T20:41:16.434Z,33.90
2023-05-11T20:43:43.628Z,34.40
2023-05-11T20:46:11.704Z,34.40
2023-05-11T20:48:40.928Z,34.70
2023-05-11T20:51:10.682Z,33.70
2023-05-11T20:53:38.485Z,34.60
2023-05-11T20:56:06.217Z,34.40
2023-05-11T20:58:33.214Z,34.80
2023-05-11T21:01:00.267Z,35.30
2023-05-11T21:03:27.895Z,34.90
2023-05-11T21:05:56.499Z,35.20
2023-05-11T21:08:24.254Z,35.30
2023-05-11T21:10:51.229Z,34.20
2023-05-11T21:13:18.300Z,34.20
2023-05-11T21:15:45.648Z,34.50
2023-05-11T21:18:13.068Z,34.20
2023-05-11T21:20:42.072Z,33.70
2023-05-11T21:23:09.332Z,33.90
2023-05-11T21:25:36.373Z,34.30
2023-05-11T21:28:04.250Z,33.30
2023-05-11T21:30:32.923Z,34.80
2023-05-11T21:33:00.196Z,33.90
2023-05-11T21:35:27.821Z,33.10
2023-05-11T21:37:54.823Z,33.60
2023-05-11T21:40:22.352Z,33.60
2023-05-11T21:42:52.630Z,33.40
2023-05-11T21:45:21.598Z,33.70
2023-05-11T21:47:48.610Z,34.00
2023-05-11T21:50:17.642Z,33.50
2023-05-11T21:52:45.017Z,33.90
2023-05-11T21:55:13.295Z,34.60
2023-05-11T21:57:40.267Z,34.30
2023-05-11T22:00:09.363Z,34.40
2023-05-11T22:02:37.396Z,34.40
2023-05-11T22:05:04.798Z,34.50
2023-05-11T22:07:32.056Z,34.60
2023-05-11T22:09:59.110Z,35.10
2023-05-11T22:12:26.168Z,34.20
2023-05-11T22:14:53.201Z,34.40
2023-05-11T22:17:20.365Z,34.40
2023-05-11T22:19:47.415Z,34.80
2023-05-11T22:22:14.563Z,35.40
2023-05-11T22:24:41.572Z,35.30
2023-05-11T22:27:15.610Z,35.50
2023-05-11T22:29:43.289Z,35.40
2023-05-11T22:32:10.997Z,34.70
2023-05-11T22:34:38.434Z,34.90
2023-05-11T22:37:05.931Z,35.10
2023-05-11T22:39:33.696Z,35.20
2023-05-11T22:42:01.124Z,35.30
2023-05-11T22:44:28.509Z,35.40
2023-05-11T22:46:56.547Z,34.30
2023-05-11T22:49:23.647Z,34.60
2023-05-11T22:51:50.685Z,35.10
2023-05-11T22:54:17.810Z,34.80
2023-05-11T22:56:44.730Z,34.80
2023-05-11T22:59:12.641Z,34.60
2023-05-11T23:01:39.744Z,34.30
2023-05-11T23:04:06.705Z,34.90
2023-05-11T23:06:33.751Z,35.10
2023-05-11T23:09:01.151Z,35.20
2023-05-11T23:11:28.312Z,34.90
2023-05-11T23:13:55.228Z,35.50
2023-05-11T23:16:22.400Z,35.90
2023-05-11T23:18:49.583Z,35.90
2023-05-11T23:21:16.743Z,35.50
2023-05-11T23:23:44.068Z,35.40
2023-05-11T23:26:11.233Z,35.00
2023-05-11T23:28:38.402Z,34.90
2023-05-11T23:31:06.641Z,34.40
2023-05-11T23:33:33.635Z,34.20
2023-05-11T23:36:00.893Z,34.30
2023-05-11T23:38:28.117Z,34.00
2023-05-11T23:40:55.129Z,34.00
2023-05-11T23:43:22.854Z,33.60
2023-05-11T23:45:49.899Z,33.30
2023-05-11T23:48:16.923Z,33.50
2023-05-11T23:50:43.941Z,33.40
2023-05-11T23:53:10.881Z,33.00
2023-05-11T23:55:37.960Z,32.90
2023-05-11T23:58:05.006Z,33.10
